Time;durP1;ratioP1;P1;durP2;ratioP2;P2;SDS_P1;SDS_P2;PMS_P1;PMS_P2;Temp;Humidity;BMP_temperature;BMP_pressure;BME280_temperature;BME280_humidity;BME280_pressure;Samples;Min_cycle;Max_cycle;Signal;HPM_P1;HPM_P2
2022/05/05 00:00:14;;;;;;;16.75;8.85;;;11.00;99.90;;;;;;5142219;28;20089;-73
2022/05/05 00:02:46;;;;;;;12.85;7.70;;;11.00;99.90;;;;;;5188052;28;20065;-75
2022/05/05 00:05:19;;;;;;;11.65;8.30;;;11.00;99.90;;;;;;5158154;28;20118;-74
2022/05/05 00:07:51;;;;;;;17.80;9.75;;;11.00;99.90;;;;;;5157903;28;20505;-74
2022/05/05 00:16:07;;;;;;;14.40;8.07;;;10.90;99.90;;;;;;5157477;28;20422;-74
2022/05/05 00:18:39;;;;;;;12.73;8.30;;;10.90;99.90;;;;;;5156162;28;20371;-74
2022/05/05 00:21:11;;;;;;;10.25;7.53;;;10.90;99.90;;;;;;5153923;28;20050;-73
2022/05/05 00:23:44;;;;;;;11.07;8.00;;;10.80;99.90;;;;;;5171568;28;20042;-74
2022/05/05 00:26:16;;;;;;;9.80;7.22;;;10.90;99.90;;;;;;5172802;28;20041;-72
2022/05/05 00:28:49;;;;;;;12.93;7.50;;;10.90;99.90;;;;;;5154866;28;20050;-73
2022/05/05 00:31:21;;;;;;;8.95;6.82;;;10.90;99.90;;;;;;5151267;28;20050;-74
2022/05/05 00:33:54;;;;;;;8.82;6.38;;;10.90;99.90;;;;;;5152744;28;20050;-73
2022/05/05 00:36:26;;;;;;;10.13;7.03;;;10.90;99.90;;;;;;5163148;28;20049;-74
2022/05/05 00:38:58;;;;;;;9.75;7.38;;;10.80;99.90;;;;;;5156891;28;20176;-74
2022/05/05 00:41:41;;;;;;;7.25;5.78;;;10.80;99.90;;;;;;5157207;28;20458;-73
2022/05/05 00:44:15;;;;;;;8.02;6.15;;;10.80;99.90;;;;;;5156288;28;20046;-73
2022/05/05 00:46:51;;;;;;;;;;;10.80;99.90;;;;;;5153709;28;20053;-72
2022/05/05 00:49:23;;;;;;;7.00;5.55;;;10.70;99.90;;;;;;5168297;28;20791;-74
2022/05/05 00:51:58;;;;;;;7.72;5.75;;;10.70;99.90;;;;;;5150812;28;20076;-74
2022/05/05 00:54:31;;;;;;;6.75;5.40;;;10.70;99.90;;;;;;5152576;28;20046;-73
2022/05/05 00:57:05;;;;;;;8.35;5.40;;;10.70;99.90;;;;;;5153687;28;20597;-73
2022/05/05 00:59:38;;;;;;;5.78;4.40;;;10.70;99.90;;;;;;5156141;28;20490;-74
2022/05/05 01:02:11;;;;;;;9.77;5.70;;;10.70;99.90;;;;;;5156135;28;20037;-73
2022/05/05 01:04:46;;;;;;;8.93;5.32;;;10.70;99.90;;;;;;5159090;28;20038;-74
2022/05/05 01:07:21;;;;;;;7.90;5.80;;;10.70;99.90;;;;;;5150503;28;20049;-74
2022/05/05 01:09:53;;;;;;;9.48;5.97;;;10.70;99.90;;;;;;5152321;28;20065;-73
2022/05/05 01:12:31;;;;;;;7.93;5.80;;;10.70;99.90;;;;;;5154669;28;20073;-74
2022/05/05 01:15:05;;;;;;;11.20;5.55;;;10.60;99.90;;;;;;5179421;23;20057;-75
2022/05/05 01:17:37;;;;;;;7.00;5.65;;;10.60;99.90;;;;;;5157568;28;20060;-76
2022/05/05 01:20:18;;;;;;;8.30;5.40;;;10.60;99.90;;;;;;5165560;28;20038;-74
2022/05/05 01:22:51;;;;;;;7.38;5.47;;;10.60;99.90;;;;;;5161285;28;20402;-76
2022/05/05 01:28:15;;;;;;;7.55;5.60;;;10.50;99.90;;;;;;5181273;28;20045;-76
2022/05/05 01:30:50;;;;;;;7.53;5.80;;;10.50;99.90;;;;;;5172174;28;20041;-75
2022/05/05 01:33:26;;;;;;;9.05;5.90;;;10.50;99.90;;;;;;5187811;28;20049;-75
2022/05/05 01:35:59;;;;;;;7.43;5.25;;;10.50;99.90;;;;;;5181759;28;20064;-74
2022/05/05 01:38:40;;;;;;;10.05;5.05;;;10.40;99.90;;;;;;5183606;28;20477;-74
2022/05/05 01:41:14;;;;;;;7.18;5.32;;;10.50;99.90;;;;;;5184893;28;20527;-76
2022/05/05 01:43:46;;;;;;;;;;;10.40;99.90;;;;;;5186021;28;20045;-73
2022/05/05 01:46:18;;;;;;;7.30;5.30;;;10.40;99.90;;;;;;5176086;28;19925;-76
2022/05/05 01:48:51;;;;;;;8.23;5.75;;;10.40;99.90;;;;;;5179434;28;20041;-74
2022/05/05 01:51:23;;;;;;;5.47;4.50;;;10.30;99.90;;;;;;5164680;28;20050;-75
2022/05/05 01:53:56;;;;;;;11.57;5.90;;;10.30;99.90;;;;;;5182946;28;20054;-74
2022/05/05 01:56:28;;;;;;;11.52;6.40;;;10.20;99.90;;;;;;5183507;28;20128;-75
2022/05/05 01:59:00;;;;;;;6.82;4.88;;;10.20;99.90;;;;;;5184310;28;20670;-75
2022/05/05 02:01:33;;;;;;;6.10;4.50;;;10.10;99.90;;;;;;5180045;28;20060;-73
2022/05/05 02:04:06;;;;;;;8.48;5.18;;;10.10;99.90;;;;;;5176823;28;20057;-74
2022/05/05 02:06:38;;;;;;;7.40;5.32;;;10.10;99.90;;;;;;5178874;28;20627;-76
2022/05/05 02:09:11;;;;;;;7.80;4.90;;;10.00;99.90;;;;;;5183118;28;20049;-75
2022/05/05 02:11:43;;;;;;;8.23;4.85;;;10.00;99.90;;;;;;5182002;28;20052;-74
2022/05/05 02:14:16;;;;;;;10.35;6.47;;;10.00;99.90;;;;;;5185189;28;20163;-74
2022/05/05 02:16:49;;;;;;;9.10;6.32;;;10.00;99.90;;;;;;5175968;28;20056;-75
2022/05/05 02:19:21;;;;;;;13.77;7.15;;;9.90;99.90;;;;;;5181662;28;20052;-75
2022/05/05 02:21:55;;;;;;;6.95;5.53;;;9.80;99.90;;;;;;5170863;28;20599;-74
2022/05/05 02:24:27;;;;;;;8.90;6.07;;;9.70;99.90;;;;;;5190264;28;20045;-75
2022/05/05 02:26:59;;;;;;;7.50;5.50;;;9.70;99.90;;;;;;5188700;28;20046;-75
2022/05/05 02:29:32;;;;;;;10.05;6.43;;;9.60;99.90;;;;;;5160099;28;20525;-75
2022/05/05 02:32:05;;;;;;;10.75;6.20;;;9.60;99.90;;;;;;5186265;28;20052;-73
2022/05/05 02:34:38;;;;;;;6.40;5.18;;;9.50;99.90;;;;;;5191887;28;20057;-75
2022/05/05 02:40:01;;;;;;;8.48;6.03;;;9.60;99.90;;;;;;5168293;28;20421;-77
2022/05/05 02:42:33;;;;;;;7.10;4.88;;;9.60;99.90;;;;;;5187027;28;20057;-77
2022/05/05 02:45:06;;;;;;;9.40;5.93;;;9.60;99.90;;;;;;5179646;28;20045;-74
2022/05/05 02:47:38;;;;;;;6.32;5.13;;;9.60;99.90;;;;;;5192724;28;20116;-73
2022/05/05 02:50:11;;;;;;;11.38;6.13;;;9.60;99.90;;;;;;5199796;28;20045;-75
2022/05/05 02:52:43;;;;;;;9.05;5.10;;;9.60;99.90;;;;;;5182424;28;20049;-76
2022/05/05 02:55:16;;;;;;;8.65;4.88;;;9.60;99.90;;;;;;5182256;28;20056;-75
2022/05/05 02:57:49;;;;;;;7.70;5.03;;;9.60;99.90;;;;;;5182968;28;20531;-75
2022/05/05 03:00:22;;;;;;;6.18;4.55;;;9.60;99.90;;;;;;5185239;28;20045;-75
2022/05/05 03:02:56;;;;;;;5.18;3.80;;;9.60;99.90;;;;;;5178355;28;20072;-75
2022/05/05 03:05:28;;;;;;;6.22;4.45;;;9.50;99.90;;;;;;5179266;28;20057;-76
2022/05/05 03:08:02;;;;;;;10.88;5.82;;;9.50;99.90;;;;;;5178468;28;20045;-76
2022/05/05 03:10:34;;;;;;;8.77;6.03;;;9.50;99.90;;;;;;5185917;28;20064;-75
2022/05/05 03:13:07;;;;;;;4.75;3.78;;;9.40;99.90;;;;;;5171299;28;20057;-73
2022/05/05 03:15:39;;;;;;;5.00;3.72;;;9.30;99.90;;;;;;5175035;28;20517;-72
2022/05/05 03:18:12;;;;;;;6.60;4.32;;;9.30;99.90;;;;;;5194805;28;20046;-74
2022/05/05 03:20:44;;;;;;;9.98;6.15;;;9.30;99.90;;;;;;5188670;28;20091;-74
2022/05/05 03:23:17;;;;;;;7.07;4.97;;;9.20;99.90;;;;;;5170793;28;20386;-75
2022/05/05 03:25:49;;;;;;;6.00;4.60;;;9.20;99.90;;;;;;5188005;28;20042;-75
2022/05/05 03:28:21;;;;;;;10.25;5.93;;;9.20;99.90;;;;;;5182085;28;20046;-75
2022/05/05 03:30:53;;;;;;;8.20;5.70;;;9.20;99.90;;;;;;5169046;28;20046;-79
2022/05/05 03:33:26;;;;;;;5.65;4.38;;;9.20;99.90;;;;;;5178089;28;20055;-75
2022/05/05 03:35:59;;;;;;;8.38;4.80;;;9.10;99.90;;;;;;5176998;28;20056;-76
2022/05/05 03:38:32;;;;;;;7.25;5.85;;;9.20;99.90;;;;;;5163578;28;20057;-74
2022/05/05 03:41:05;;;;;;;5.28;4.75;;;9.10;99.90;;;;;;5179796;28;20041;-73
2022/05/05 03:43:37;;;;;;;9.18;5.55;;;9.00;99.90;;;;;;5179093;28;20995;-74
2022/05/05 03:46:11;;;;;;;6.95;4.75;;;9.00;99.90;;;;;;5179410;28;20050;-75
2022/05/05 03:48:44;;;;;;;7.05;4.68;;;9.00;99.90;;;;;;5196909;28;20050;-75
2022/05/05 03:51:17;;;;;;;12.25;5.38;;;9.00;99.90;;;;;;5179906;28;20677;-75
2022/05/05 03:53:49;;;;;;;6.50;4.93;;;9.00;99.90;;;;;;5178208;28;20460;-73
2022/05/05 03:56:22;;;;;;;6.72;4.55;;;9.00;99.90;;;;;;5175308;28;20049;-76
2022/05/05 03:58:54;;;;;;;9.90;5.68;;;9.00;99.90;;;;;;5170011;28;20465;-75
2022/05/05 04:01:26;;;;;;;6.57;5.03;;;8.90;99.90;;;;;;5166805;28;20049;-74
2022/05/05 04:03:59;;;;;;;6.88;4.68;;;9.00;99.90;;;;;;5157878;28;20501;-73
2022/05/05 04:06:32;;;;;;;10.63;5.00;;;9.00;99.90;;;;;;5167961;28;20053;-73
2022/05/05 04:09:05;;;;;;;8.73;6.15;;;9.00;99.90;;;;;;5170156;28;20204;-74
2022/05/05 04:11:38;;;;;;;7.60;5.10;;;9.00;99.90;;;;;;5164286;28;20041;-74
2022/05/05 04:14:10;;;;;;;8.95;5.38;;;8.90;99.90;;;;;;5162010;28;20037;-74
2022/05/05 04:16:43;;;;;;;5.68;4.30;;;8.90;99.90;;;;;;5172092;28;20045;-75
2022/05/05 04:19:15;;;;;;;6.97;5.28;;;8.90;99.90;;;;;;5167363;28;20045;-72
2022/05/05 04:21:48;;;;;;;7.90;5.60;;;8.90;99.90;;;;;;5160032;28;20049;-74
2022/05/05 04:24:20;;;;;;;5.63;4.80;;;8.80;99.90;;;;;;5174844;28;20033;-76
2022/05/05 04:26:53;;;;;;;10.00;5.65;;;8.90;99.90;;;;;;5186069;28;20049;-75
2022/05/05 04:29:25;;;;;;;7.68;6.00;;;8.90;99.90;;;;;;5146328;28;20061;-75
2022/05/05 04:31:57;;;;;;;10.18;6.75;;;9.00;99.90;;;;;;5171464;28;20045;-74
2022/05/05 04:34:31;;;;;;;9.63;5.80;;;9.00;99.90;;;;;;5165073;28;20519;-73
2022/05/05 04:37:04;;;;;;;11.02;6.82;;;9.10;99.90;;;;;;5160186;28;20049;-76
2022/05/05 04:39:36;;;;;;;12.85;7.30;;;9.10;99.90;;;;;;5167647;28;20057;-73
2022/05/05 04:42:10;;;;;;;10.93;6.85;;;9.20;99.90;;;;;;5161420;28;20056;-76
2022/05/05 04:44:42;;;;;;;14.05;7.90;;;9.20;99.90;;;;;;5166239;28;20578;-74
2022/05/05 04:47:14;;;;;;;11.90;7.15;;;9.20;99.90;;;;;;5165926;28;20056;-76
2022/05/05 04:49:47;;;;;;;11.45;7.15;;;9.30;99.90;;;;;;5177405;28;20049;-75
2022/05/05 04:52:19;;;;;;;11.65;6.65;;;9.30;99.90;;;;;;5170982;28;20136;-77
2022/05/05 04:54:52;;;;;;;12.20;7.68;;;9.40;99.90;;;;;;5176961;28;20123;-76
2022/05/05 04:57:25;;;;;;;14.17;7.77;;;9.50;99.90;;;;;;5166379;28;20049;-76
2022/05/05 04:59:59;;;;;;;10.07;7.20;;;9.50;99.90;;;;;;5163399;28;20050;-77
2022/05/05 05:02:31;;;;;;;13.27;8.02;;;9.60;99.90;;;;;;5170045;28;20096;-76
2022/05/05 05:05:04;;;;;;;14.90;9.20;;;9.70;99.90;;;;;;5164351;28;20477;-76
2022/05/05 05:07:36;;;;;;;13.43;8.60;;;9.70;99.90;;;;;;5156805;28;20502;-77
2022/05/05 05:10:09;;;;;;;13.88;7.53;;;9.80;99.90;;;;;;5162541;28;20057;-74
2022/05/05 05:12:43;;;;;;;9.07;6.63;;;9.90;99.90;;;;;;5163575;28;21064;-76
2022/05/05 05:15:15;;;;;;;9.73;6.27;;;10.00;99.90;;;;;;5155900;28;20053;-74
2022/05/05 05:17:48;;;;;;;7.55;5.93;;;10.10;99.90;;;;;;5164744;28;20054;-74
2022/05/05 05:20:21;;;;;;;9.95;6.43;;;10.10;99.90;;;;;;5162312;28;20496;-74
2022/05/05 05:22:53;;;;;;;7.88;5.78;;;10.20;99.90;;;;;;5163605;28;20179;-75
2022/05/05 05:25:26;;;;;;;9.63;5.80;;;10.20;99.90;;;;;;5161177;28;21186;-75
2022/05/05 05:27:58;;;;;;;7.27;5.20;;;10.20;99.90;;;;;;5162634;28;20053;-75
2022/05/05 05:30:43;;;;;;;6.30;5.03;;;10.30;99.90;;;;;;5167293;28;20045;-74
2022/05/05 05:33:16;;;;;;;9.35;6.18;;;10.30;99.90;;;;;;5161852;28;21199;-75
2022/05/05 05:35:49;;;;;;;9.60;6.13;;;10.30;99.90;;;;;;5165892;28;20112;-75
2022/05/05 05:38:21;;;;;;;8.55;5.70;;;10.40;99.90;;;;;;5158441;28;22176;-73
2022/05/05 05:40:57;;;;;;;7.82;5.15;;;10.60;99.90;;;;;;5177774;28;20550;-73
2022/05/05 05:43:29;;;;;;;7.93;5.10;;;10.70;99.90;;;;;;5177804;28;20052;-75
2022/05/05 05:46:01;;;;;;;6.15;4.75;;;10.80;99.90;;;;;;5170721;28;20520;-73
2022/05/05 05:48:34;;;;;;;6.65;5.47;;;10.90;99.90;;;;;;5180377;28;20445;-76
2022/05/05 05:51:06;;;;;;;9.45;5.53;;;11.00;99.90;;;;;;5175952;28;20057;-75
2022/05/05 05:53:39;;;;;;;7.15;4.82;;;11.10;99.90;;;;;;5168543;28;20050;-75
2022/05/05 05:56:11;;;;;;;7.10;5.20;;;11.20;99.90;;;;;;5185550;28;20414;-77
2022/05/05 05:58:44;;;;;;;7.15;5.18;;;11.40;99.90;;;;;;5176248;28;20049;-76
2022/05/05 06:01:16;;;;;;;9.07;5.13;;;11.50;99.90;;;;;;5161153;28;20041;-74
2022/05/05 06:03:56;;;;;;;7.43;4.93;;;11.60;99.90;;;;;;5180199;28;20046;-75
2022/05/05 06:06:28;;;;;;;9.13;4.88;;;11.70;99.90;;;;;;5176344;28;20077;-74
2022/05/05 06:09:01;;;;;;;6.10;4.22;;;11.80;99.90;;;;;;5175559;28;20041;-74
2022/05/05 06:11:33;;;;;;;5.80;4.68;;;12.00;99.90;;;;;;5170810;28;21532;-77
2022/05/05 06:14:05;;;;;;;10.00;5.32;;;12.10;99.90;;;;;;5181013;28;20052;-77
2022/05/05 06:16:38;;;;;;;7.47;5.47;;;12.30;99.90;;;;;;5186761;28;20041;-77
2022/05/05 06:19:10;;;;;;;9.82;5.65;;;12.40;99.90;;;;;;5176705;28;20049;-77
2022/05/05 06:21:43;;;;;;;7.78;4.78;;;12.50;99.90;;;;;;5177246;28;20050;-74
2022/05/05 06:24:15;;;;;;;7.38;5.85;;;12.50;99.90;;;;;;5176532;28;20420;-74
2022/05/05 06:26:48;;;;;;;8.48;6.90;;;12.70;99.90;;;;;;5189763;28;20054;-75
2022/05/05 06:29:20;;;;;;;10.18;7.57;;;12.70;99.90;;;;;;5182059;28;20480;-75
2022/05/05 06:31:53;;;;;;;10.00;7.20;;;12.80;99.90;;;;;;5176619;28;20045;-76
2022/05/05 06:34:25;;;;;;;10.88;7.93;;;13.00;99.90;;;;;;5178482;28;20505;-74
2022/05/05 06:36:59;;;;;;;10.75;7.47;;;13.10;99.90;;;;;;5185438;28;20042;-76
2022/05/05 06:39:31;;;;;;;12.48;8.93;;;13.10;99.90;;;;;;5161597;28;21261;-75
2022/05/05 06:42:04;;;;;;;12.38;8.38;;;13.20;99.90;;;;;;5183824;28;20052;-77
2022/05/05 06:44:38;;;;;;;14.00;9.60;;;13.40;99.90;;;;;;5186926;28;20053;-77
2022/05/05 06:47:11;;;;;;;13.88;9.05;;;13.40;99.90;;;;;;5178156;28;20053;-76
2022/05/05 06:49:43;;;;;;;15.07;9.00;;;13.40;99.90;;;;;;5163138;28;20604;-76
2022/05/05 06:52:16;;;;;;;11.85;8.57;;;13.50;99.90;;;;;;5180700;28;20056;-76
2022/05/05 06:55:09;;;;;;;15.05;10.07;;;13.40;99.90;;;;;;5183133;28;20041;-76
2022/05/05 06:57:43;;;;;;;14.13;9.57;;;13.60;99.90;;;;;;5183088;28;20525;-75
2022/05/05 07:00:17;;;;;;;15.35;10.20;;;13.80;99.90;;;;;;5186847;28;20060;-74
2022/05/05 07:02:49;;;;;;;;;;;13.80;99.90;;;;;;5186100;28;20056;-73
2022/05/05 07:05:26;;;;;;;13.48;10.15;;;13.80;99.90;;;;;;5180892;28;19924;-76
2022/05/05 07:07:59;;;;;;;16.58;10.25;;;13.90;99.90;;;;;;5180545;28;20046;-76
2022/05/05 07:13:24;;;;;;;15.18;10.73;;;14.20;99.90;;;;;;5201849;28;20340;-77
2022/05/05 07:15:56;;;;;;;15.52;11.13;;;14.30;99.90;;;;;;5180392;23;20053;-70
2022/05/05 07:18:28;;;;;;;15.70;10.63;;;14.30;99.90;;;;;;5160178;28;20050;-71
2022/05/05 07:21:01;;;;;;;16.75;10.95;;;14.40;99.90;;;;;;5158053;28;20355;-71
2022/05/05 07:23:33;;;;;;;16.00;10.25;;;14.30;99.90;;;;;;5161023;28;20056;-70
2022/05/05 07:26:06;;;;;;;17.40;10.75;;;14.50;99.90;;;;;;5162590;28;20056;-71
2022/05/05 07:28:39;;;;;;;18.75;11.65;;;14.70;99.90;;;;;;5159471;28;20939;-70
2022/05/05 07:31:11;;;;;;;14.27;10.65;;;14.80;99.90;;;;;;5160451;28;20391;-70
2022/05/05 07:33:43;;;;;;;14.63;10.75;;;14.80;99.90;;;;;;5152982;28;20310;-71
2022/05/05 07:36:16;;;;;;;16.75;11.10;;;14.90;99.90;;;;;;5158928;28;20046;-71
2022/05/05 07:38:49;;;;;;;19.85;10.70;;;15.10;99.90;;;;;;5160949;28;20038;-72
2022/05/05 07:41:22;;;;;;;20.33;11.68;;;15.10;99.90;;;;;;5166435;28;20042;-70
2022/05/05 07:43:55;;;;;;;16.77;11.20;;;15.10;99.90;;;;;;5164747;28;21299;-70
2022/05/05 07:46:28;;;;;;;14.40;11.07;;;15.20;99.90;;;;;;5165570;28;20069;-70
2022/05/05 07:49:02;;;;;;;14.77;10.17;;;15.50;99.90;;;;;;5161626;28;20057;-70
2022/05/05 07:51:34;;;;;;;18.90;11.60;;;15.80;99.90;;;;;;5162101;28;20305;-70
2022/05/05 07:57:03;;;;;;;17.42;10.93;;;15.80;99.90;;;;;;5159993;28;20072;-70
2022/05/05 07:59:35;;;;;;;17.67;11.82;;;15.80;99.90;;;;;;5161890;28;20097;-70
2022/05/05 08:02:13;;;;;;;14.85;11.57;;;15.90;99.90;;;;;;5163417;28;20049;-70
2022/05/05 08:04:45;;;;;;;17.20;11.15;;;16.10;99.90;;;;;;5152654;28;20046;-70
2022/05/05 08:07:17;;;;;;;19.35;11.25;;;16.10;99.90;;;;;;5151383;28;20042;-70
2022/05/05 08:09:50;;;;;;;14.60;11.23;;;16.20;99.90;;;;;;5159490;28;20043;-70
2022/05/05 08:12:42;;;;;;;14.30;10.77;;;16.20;98.20;;;;;;5165595;28;20064;-69
2022/05/05 08:15:16;;;;;;;15.88;11.35;;;16.10;99.10;;;;;;5165470;28;20057;-70
2022/05/05 08:17:49;;;;;;;17.98;11.65;;;15.90;98.70;;;;;;5167833;28;20057;-70
2022/05/05 08:20:21;;;;;;;14.88;10.77;;;16.00;99.90;;;;;;5166983;28;20049;-71
2022/05/05 08:22:53;;;;;;;14.73;10.40;;;16.10;99.40;;;;;;5154607;28;20050;-71
2022/05/05 08:28:29;;;;;;;17.35;11.88;;;16.20;98.20;;;;;;5150341;28;20057;-71
2022/05/05 08:31:05;;;;;;;17.92;11.95;;;16.10;99.10;;;;;;5157078;28;20060;-71
2022/05/05 08:33:38;;;;;;;18.63;12.40;;;16.10;99.90;;;;;;5139028;28;20045;-71
2022/05/05 08:36:11;;;;;;;20.27;12.60;;;16.10;99.90;;;;;;5151693;28;20049;-71
2022/05/05 08:38:45;;;;;;;18.90;12.05;;;16.10;99.90;;;;;;5158565;28;20046;-71
2022/05/05 08:41:18;;;;;;;16.52;11.98;;;16.10;99.90;;;;;;5151820;28;20937;-71
2022/05/05 08:43:50;;;;;;;15.90;10.85;;;16.20;96.80;;;;;;5155443;28;20061;-70
2022/05/05 08:46:39;;;;;;;15.25;11.77;;;16.40;94.90;;;;;;5157895;28;20069;-70
2022/05/05 08:49:13;;;;;;;15.75;11.32;;;16.60;95.10;;;;;;5143788;28;20052;-71
2022/05/05 08:51:49;;;;;;;16.52;10.60;;;16.80;93.50;;;;;;5156637;28;20402;-70
2022/05/05 08:54:23;;;;;;;16.73;10.80;;;16.90;93.30;;;;;;5156140;28;20130;-71
2022/05/05 08:56:56;;;;;;;12.68;10.52;;;16.80;91.20;;;;;;5153557;28;20058;-70
2022/05/05 08:59:29;;;;;;;15.75;10.93;;;16.90;91.30;;;;;;5169806;28;20057;-70
2022/05/05 09:02:01;;;;;;;15.85;11.13;;;17.00;90.80;;;;;;5155154;28;20042;-70
2022/05/05 09:04:34;;;;;;;18.77;11.57;;;17.10;90.40;;;;;;5148443;28;20414;-69
2022/05/05 09:07:07;;;;;;;14.35;11.10;;;17.20;90.50;;;;;;5152589;28;20306;-69
2022/05/05 09:09:39;;;;;;;17.45;11.60;;;17.30;89.90;;;;;;5153226;28;20049;-70
2022/05/05 09:12:19;;;;;;;17.67;11.80;;;17.30;89.10;;;;;;5150926;28;20050;-70
2022/05/05 09:14:53;;;;;;;14.18;10.07;;;17.40;90.00;;;;;;5151152;28;20060;-70
2022/05/05 09:17:28;;;;;;;12.05;10.25;;;17.60;90.60;;;;;;5166150;28;20892;-70
2022/05/05 09:20:03;;;;;;;17.65;10.57;;;17.70;89.40;;;;;;5156097;28;20505;-69
2022/05/05 09:22:37;;;;;;;13.20;9.38;;;17.80;89.20;;;;;;5154336;28;20065;-70
2022/05/05 09:25:11;;;;;;;14.82;10.20;;;17.80;88.80;;;;;;5150682;28;20041;-70
2022/05/05 09:27:44;;;;;;;;;;;17.80;87.00;;;;;;5150941;28;20043;-71
2022/05/05 09:30:16;;;;;;;16.27;11.48;;;17.70;81.90;;;;;;5156969;28;20400;-70
2022/05/05 09:32:48;;;;;;;15.35;10.75;;;17.70;82.90;;;;;;5149862;28;20062;-70
2022/05/05 09:35:22;;;;;;;13.98;10.18;;;17.70;83.40;;;;;;5145714;28;20053;-69
2022/05/05 09:37:54;;;;;;;18.02;10.20;;;17.80;84.40;;;;;;5151623;28;20056;-70
2022/05/05 09:40:28;;;;;;;13.13;9.48;;;18.00;83.60;;;;;;5152486;28;20498;-70
2022/05/05 09:43:01;;;;;;;14.07;10.52;;;18.20;84.30;;;;;;5155284;28;20042;-70
2022/05/05 09:45:34;;;;;;;13.13;9.20;;;18.40;83.20;;;;;;5150727;28;20050;-70
2022/05/05 09:48:09;;;;;;;11.40;9.60;;;18.50;82.00;;;;;;5144611;28;20050;-69
2022/05/05 09:50:42;;;;;;;12.63;9.90;;;18.60;81.40;;;;;;5152918;28;20642;-71
2022/05/05 09:59:00;;;;;;;15.77;10.80;;;18.90;79.90;;;;;;5150790;28;20059;-70
2022/05/05 10:01:35;;;;;;;17.13;10.32;;;18.70;80.10;;;;;;5145642;28;20061;-70
2022/05/05 10:04:10;;;;;;;15.98;10.65;;;18.60;80.70;;;;;;5148353;28;20057;-69
2022/05/05 10:06:43;;;;;;;16.42;9.73;;;18.70;81.30;;;;;;5145564;28;20034;-69
2022/05/05 10:09:19;;;;;;;11.98;9.13;;;18.80;82.00;;;;;;5152968;28;20049;-70
2022/05/05 10:11:51;;;;;;;14.30;9.05;;;18.90;81.20;;;;;;5153195;28;20042;-70
2022/05/05 10:14:25;;;;;;;14.18;9.52;;;19.00;79.50;;;;;;5146269;28;20046;-71
2022/05/05 10:16:58;;;;;;;13.95;9.23;;;18.90;78.50;;;;;;5162001;28;20530;-68
2022/05/05 10:19:31;;;;;;;11.68;9.25;;;18.90;78.70;;;;;;5145356;28;20068;-68
2022/05/05 10:22:11;;;;;;;12.18;8.80;;;19.00;77.80;;;;;;5149875;28;20045;-69
2022/05/05 10:25:05;;;;;;;11.90;8.68;;;19.10;76.80;;;;;;5141872;28;20497;-69
2022/05/05 10:27:42;;;;;;;9.57;7.75;;;19.30;77.60;;;;;;5140597;28;22017;-69
2022/05/05 10:30:16;;;;;;;16.83;9.68;;;19.60;77.30;;;;;;5151622;28;20061;-70
2022/05/05 10:32:48;;;;;;;;;;;19.60;75.40;;;;;;5147207;28;20566;-69
2022/05/05 10:35:22;;;;;;;14.50;8.68;;;19.40;73.90;;;;;;5146627;28;19930;-69
2022/05/05 10:37:56;;;;;;;18.25;11.70;;;19.40;76.90;;;;;;5144425;28;20068;-69
2022/05/05 10:40:45;;;;;;;18.63;11.77;;;19.40;76.80;;;;;;5148590;28;20666;-69
2022/05/05 10:43:32;;;;;;;12.05;8.73;;;19.50;75.90;;;;;;5145487;28;20493;-70
2022/05/05 10:46:43;;;;;;;10.25;7.90;;;19.50;74.60;;;;;;5140358;28;20042;-70
2022/05/05 10:52:10;;;;;;;10.48;7.82;;;19.50;71.90;;;;;;5151706;28;20050;-70
2022/05/05 10:54:45;;;;;;;13.10;7.18;;;19.50;73.30;;;;;;5152866;28;21196;-69
2022/05/05 10:57:27;;;;;;;10.18;7.00;;;19.60;74.30;;;;;;5154173;28;20054;-69
2022/05/05 11:00:06;;;;;;;12.32;7.70;;;19.70;74.40;;;;;;5152061;28;20061;-70
2022/05/05 11:03:00;;;;;;;8.65;7.68;;;19.90;71.30;;;;;;5148184;28;20116;-69
2022/05/05 11:05:36;;;;;;;8.35;7.40;;;20.10;70.20;;;;;;5150187;28;20041;-70
2022/05/05 11:08:17;;;;;;;11.45;8.43;;;20.50;70.50;;;;;;5150473;28;20057;-70
2022/05/05 11:13:44;;;;;;;10.65;7.38;;;21.00;69.00;;;;;;5146590;28;20050;-70
2022/05/05 11:22:24;;;;;;;8.80;6.28;;;21.70;65.40;;;;;;5145012;28;20054;-70
2022/05/05 11:24:56;;;;;;;8.57;6.57;;;21.50;64.00;;;;;;5149833;28;20986;-71
2022/05/05 11:27:29;;;;;;;9.77;6.57;;;21.70;63.30;;;;;;5145531;28;20046;-70
2022/05/05 11:30:02;;;;;;;7.35;5.75;;;21.50;63.80;;;;;;5153934;28;20084;-70
2022/05/05 11:32:35;;;;;;;9.25;5.57;;;21.70;63.20;;;;;;5146174;28;20050;-70
2022/05/05 11:35:10;;;;;;;5.85;4.80;;;22.30;63.80;;;;;;5151950;28;20057;-70
2022/05/05 11:37:43;;;;;;;7.57;6.07;;;22.50;61.10;;;;;;5146889;28;20046;-70
2022/05/05 11:40:16;;;;;;;;;;;22.40;60.70;;;;;;5144048;28;20062;-70
2022/05/05 11:45:40;;;;;;;5.40;3.90;;;22.60;60.50;;;;;;5149310;28;20050;-69
2022/05/05 11:48:19;;;;;;;7.27;6.00;;;23.00;59.20;;;;;;5154606;28;20042;-70
2022/05/05 11:51:24;;;;;;;5.68;4.90;;;23.20;57.00;;;;;;5144844;28;20901;-69
2022/05/05 11:54:10;;;;;;;8.23;5.03;;;23.50;56.50;;;;;;5150649;28;20045;-70
2022/05/05 11:56:45;;;;;;;6.28;5.13;;;23.70;56.40;;;;;;5139891;28;20057;-70
2022/05/05 12:02:17;;;;;;;5.35;4.57;;;24.00;56.00;;;;;;5163797;28;20041;-69
2022/05/05 12:04:58;;;;;;;8.80;5.80;;;24.30;56.80;;;;;;5163324;28;20049;-70
2022/05/05 12:07:32;;;;;;;7.63;6.40;;;24.60;56.60;;;;;;5155770;28;20045;-70
2022/05/05 12:10:09;;;;;;;9.93;6.33;;;24.50;56.80;;;;;;5161399;28;20054;-70
2022/05/05 12:12:46;;;;;;;7.95;6.40;;;24.60;55.70;;;;;;5156152;28;20561;-70
2022/05/05 12:15:21;;;;;;;7.53;5.30;;;24.40;54.60;;;;;;5165968;28;20052;-69
2022/05/05 12:17:58;;;;;;;7.80;5.40;;;24.30;56.50;;;;;;5152737;28;20445;-70
2022/05/05 12:20:31;;;;;;;6.13;5.50;;;24.30;56.90;;;;;;5152923;28;20458;-70
2022/05/05 12:23:04;;;;;;;8.88;5.63;;;24.20;57.20;;;;;;5153028;28;20040;-70
2022/05/05 12:25:43;;;;;;;6.35;5.68;;;24.20;57.80;;;;;;5156221;28;20042;-70
2022/05/05 12:28:16;;;;;;;6.30;5.28;;;24.30;54.80;;;;;;5152928;28;20053;-70
2022/05/05 12:30:48;;;;;;;7.18;5.93;;;24.10;56.00;;;;;;5156641;28;20073;-71
2022/05/05 12:33:35;;;;;;;8.48;6.10;;;24.00;55.60;;;;;;5150052;28;20265;-69
2022/05/05 12:36:13;;;;;;;10.50;6.70;;;23.80;54.80;;;;;;5145011;28;20992;-69
2022/05/05 12:38:45;;;;;;;8.23;6.10;;;23.50;55.90;;;;;;5161458;28;20058;-69
2022/05/05 12:41:18;;;;;;;6.70;5.43;;;23.40;56.50;;;;;;5161986;28;20407;-69
2022/05/05 12:43:50;;;;;;;9.23;6.78;;;23.40;56.70;;;;;;5174168;28;20055;-69
2022/05/05 12:46:23;;;;;;;9.13;6.03;;;23.50;56.70;;;;;;5149706;28;21236;-68
2022/05/05 12:48:55;;;;;;;12.40;5.90;;;23.30;57.40;;;;;;4454908;28;10000404;-69
2022/05/05 12:51:30;;;;;;;8.07;6.40;;;22.90;57.70;;;;;;4809902;28;9999796;-69
2022/05/05 12:59:48;;;;;;;6.38;5.57;;;23.00;55.80;;;;;;5148972;28;20647;-70
2022/05/05 13:02:20;;;;;;;8.35;5.45;;;22.80;57.20;;;;;;5154034;28;20052;-70
2022/05/05 13:04:53;;;;;;;7.68;5.68;;;22.80;57.50;;;;;;5146466;28;20049;-70
2022/05/05 13:07:28;;;;;;;5.32;4.80;;;22.60;57.80;;;;;;5155540;28;20057;-70
2022/05/05 13:10:00;;;;;;;7.22;5.03;;;22.50;58.20;;;;;;5139722;28;20046;-69
2022/05/05 13:12:33;;;;;;;8.27;5.18;;;22.60;57.90;;;;;;5153353;28;20059;-70
2022/05/05 13:15:06;;;;;;;6.30;5.45;;;22.60;56.90;;;;;;5152150;28;20058;-69
2022/05/05 13:17:39;;;;;;;7.35;5.45;;;22.70;57.20;;;;;;5161825;28;20058;-70
2022/05/05 13:20:11;;;;;;;5.95;4.93;;;22.60;56.90;;;;;;5158205;28;20046;-70
2022/05/05 13:22:44;;;;;;;7.30;5.50;;;22.60;58.00;;;;;;5156044;28;20057;-69
2022/05/05 13:25:16;;;;;;;8.45;5.38;;;22.50;57.80;;;;;;5125853;28;20162;-70
2022/05/05 13:27:49;;;;;;;7.15;4.75;;;22.50;57.80;;;;;;5153109;28;20548;-70
2022/05/05 13:30:21;;;;;;;7.45;5.70;;;22.40;57.10;;;;;;5159626;28;21607;-71
2022/05/05 13:32:54;;;;;;;6.07;5.10;;;22.10;56.80;;;;;;5161534;28;20049;-70
2022/05/05 13:35:27;;;;;;;6.45;5.45;;;22.10;58.10;;;;;;5160201;28;20111;-70
2022/05/05 13:37:59;;;;;;;7.10;5.35;;;22.10;58.00;;;;;;5152728;28;20057;-69
2022/05/05 13:40:32;;;;;;;8.07;6.18;;;22.10;57.80;;;;;;5154972;28;20045;-70
2022/05/05 13:43:05;;;;;;;;;;;22.00;59.10;;;;;;5161240;28;20747;-69
2022/05/05 13:45:38;;;;;;;9.57;7.25;;;21.80;58.40;;;;;;5161824;28;19925;-70
2022/05/05 13:48:10;;;;;;;9.37;6.40;;;21.70;58.40;;;;;;5134525;28;20038;-71
2022/05/05 13:50:43;;;;;;;9.23;5.85;;;21.70;59.20;;;;;;5149637;28;20885;-70
2022/05/05 13:53:15;;;;;;;6.43;5.03;;;21.70;58.40;;;;;;5139142;28;20052;-71
2022/05/05 13:55:48;;;;;;;8.57;6.38;;;21.70;58.70;;;;;;5144326;28;20050;-69
2022/05/05 13:58:20;;;;;;;7.90;5.50;;;21.60;58.60;;;;;;5145887;28;20049;-69
2022/05/05 14:00:53;;;;;;;6.97;5.60;;;21.60;58.70;;;;;;5143023;28;20046;-69
2022/05/05 14:03:28;;;;;;;6.43;4.70;;;21.60;58.50;;;;;;5152834;28;20046;-70
2022/05/05 14:06:00;;;;;;;6.30;4.80;;;21.50;59.60;;;;;;5147206;28;20060;-70